Terminal Aerodrome Forecast
Issued by NWS Albuquerque, NM

Home | Current Version | Previous Version | Text Only | Print | Product List | Glossary On
Versions: 1 2 3 4 5 6 7 8 9 10 11 12 13
000
FTUS45 KABQ 302320
TAFABQ
TAF
KABQ 302320Z 3100/3124 20013G21KT P6SM FEW100
     FM310200 19011KT P6SM BKN250
     FM310600 15009KT P6SM BKN200
     FM311500 17017G28KT P6SM SCT150
     FM311800 22023G32KT P6SM BKN120=

USA.gov is the U.S. government's official web portal to all federal, state and local government web resources and services.